Time;durP1;ratioP1;P1;durP2;ratioP2;P2;SDS_P1;SDS_P2;PMS_P1;PMS_P2;Temp;Humidity;BMP_temperature;BMP_pressure;BME280_temperature;BME280_humidity;BME280_pressure;Samples;Min_cycle;Max_cycle;Signal;HPM_P1;HPM_P2
2022/12/29 00:01:20;;;;;;;2.85;2.25;;;10.20;99.90;;;;;;4182140;28;20702;-86
2022/12/29 00:03:21;;;;;;;4.60;2.03;;;10.20;99.90;;;;;;4199169;28;20048;-86
2022/12/29 00:05:21;;;;;;;3.33;2.20;;;10.30;99.90;;;;;;4198749;28;20048;-86
2022/12/29 00:07:22;;;;;;;4.65;2.75;;;10.30;99.90;;;;;;4182470;28;20544;-86
2022/12/29 00:09:23;;;;;;;3.00;2.20;;;10.30;99.90;;;;;;4198813;28;20167;-86
2022/12/29 00:11:25;;;;;;;3.65;1.95;;;10.20;99.90;;;;;;4198763;28;20055;-86
2022/12/29 00:15:45;;;;;;;2.38;1.98;;;10.20;99.90;;;;;;4198415;28;20056;-85
2022/12/29 00:17:46;;;;;;;3.72;2.35;;;10.10;99.90;;;;;;4200218;28;20502;-86
2022/12/29 00:35:57;;;;;;;3.33;1.77;;;10.30;99.90;;;;;;4199210;28;20507;-86
2022/12/29 00:45:00;;;;;;;2.17;1.63;;;10.40;99.90;;;;;;4199502;28;20284;-86
2022/12/29 00:47:04;;;;;;;4.40;2.03;;;10.40;99.90;;;;;;4199637;28;20041;-86
2022/12/29 00:51:25;;;;;;;3.42;2.00;;;10.40;99.90;;;;;;4198298;28;20106;-85
2022/12/29 00:53:26;;;;;;;3.17;1.98;;;10.40;99.90;;;;;;4199773;28;20036;-86
2022/12/29 00:55:26;;;;;;;4.20;2.17;;;10.40;99.90;;;;;;4198125;28;20246;-85
2022/12/29 00:57:28;;;;;;;3.25;2.22;;;10.40;99.90;;;;;;4196631;28;20048;-86
2022/12/29 00:59:29;;;;;;;2.72;1.92;;;10.50;99.90;;;;;;4199401;28;20048;-86
2022/12/29 01:01:30;;;;;;;3.42;1.90;;;10.50;99.90;;;;;;4198203;28;20040;-85
2022/12/29 01:03:32;;;;;;;2.38;2.00;;;10.50;99.90;;;;;;4198075;28;20492;-86
2022/12/29 01:05:36;;;;;;;4.60;2.08;;;10.50;99.90;;;;;;4181727;28;20585;-86
2022/12/29 01:07:37;;;;;;;3.42;2.35;;;10.50;99.90;;;;;;4198883;28;20043;-85
2022/12/29 01:11:57;;;;;;;;;;;10.60;99.90;;;;;;4198352;28;20048;-86
2022/12/29 01:13:58;;;;;;;4.55;2.25;;;10.60;99.90;;;;;;4199052;28;19967;-85
2022/12/29 01:15:59;;;;;;;4.78;1.95;;;10.60;99.90;;;;;;4199079;28;20045;-86
2022/12/29 01:17:59;;;;;;;3.00;2.13;;;10.60;99.90;;;;;;4181358;28;20044;-86
2022/12/29 01:20:01;;;;;;;5.75;2.50;;;10.60;99.90;;;;;;4199089;28;20044;-86
2022/12/29 01:22:01;;;;;;;2.50;2.03;;;10.60;99.90;;;;;;4198621;28;20123;-86
2022/12/29 01:24:03;;;;;;;3.20;2.20;;;10.60;99.90;;;;;;4199205;28;20043;-86
2022/12/29 01:26:11;;;;;;;3.47;2.13;;;10.60;99.90;;;;;;4181313;28;20059;-86
2022/12/29 01:28:13;;;;;;;4.60;2.45;;;10.60;99.90;;;;;;4199394;28;20040;-86
2022/12/29 01:30:14;;;;;;;3.50;2.10;;;10.60;99.90;;;;;;4199147;28;20055;-86
2022/12/29 01:32:15;;;;;;;3.30;2.60;;;10.60;99.90;;;;;;4197609;28;20519;-85
2022/12/29 01:34:16;;;;;;;2.47;2.10;;;10.60;99.90;;;;;;4198391;28;20094;-86
2022/12/29 01:36:18;;;;;;;2.55;1.95;;;10.60;99.90;;;;;;4198977;28;20033;-86
2022/12/29 01:38:18;;;;;;;8.98;2.55;;;10.60;99.90;;;;;;4198927;28;20044;-86
2022/12/29 01:40:19;;;;;;;4.43;2.25;;;10.60;99.90;;;;;;4199279;28;20043;-86
2022/12/29 01:42:24;;;;;;;3.72;2.30;;;10.10;99.90;;;;;;4180504;28;20049;-86
2022/12/29 01:44:49;;;;;;;3.45;2.20;;;10.60;99.90;;;;;;4197625;28;20060;-86
2022/12/29 01:46:51;;;;;;;4.70;2.40;;;10.50;99.90;;;;;;4181840;28;20064;-86
2022/12/29 01:49:07;;;;;;;3.25;2.10;;;10.50;99.90;;;;;;4181340;28;20053;-86
2022/12/29 01:51:09;;;;;;;4.18;2.40;;;10.40;99.90;;;;;;4197510;28;20429;-86
2022/12/29 01:53:16;;;;;;;4.43;2.28;;;10.50;99.90;;;;;;4197463;28;20493;-86
2022/12/29 01:55:18;;;;;;;4.88;2.30;;;10.50;99.90;;;;;;4197873;28;20044;-86
2022/12/29 01:57:29;;;;;;;4.50;2.67;;;10.40;99.90;;;;;;4197504;28;20045;-86
2022/12/29 01:59:41;;;;;;;3.65;2.40;;;10.40;99.90;;;;;;4196832;28;20053;-86
2022/12/29 02:01:42;;;;;;;5.10;2.28;;;10.40;99.90;;;;;;4197390;28;20037;-85
2022/12/29 02:03:43;;;;;;;3.28;2.53;;;10.30;99.90;;;;;;4196794;28;20642;-86
2022/12/29 02:06:08;;;;;;;3.92;2.38;;;10.30;99.90;;;;;;4196974;28;20131;-86
2022/12/29 02:08:09;;;;;;;3.90;2.45;;;10.30;99.90;;;;;;4196717;28;20472;-86
2022/12/29 02:10:10;;;;;;;3.50;2.33;;;10.30;99.90;;;;;;4197062;28;20049;-85
2022/12/29 02:12:12;;;;;;;7.10;2.42;;;10.20;99.90;;;;;;4197060;28;20449;-86
2022/12/29 02:14:13;;;;;;;3.65;2.45;;;10.20;99.90;;;;;;4197231;28;20044;-87
2022/12/29 02:16:20;;;;;;;3.97;2.30;;;10.20;99.90;;;;;;4198133;28;20089;-86
2022/12/29 02:18:48;;;;;;;3.20;2.58;;;10.10;99.90;;;;;;4196526;28;20207;-86
2022/12/29 02:20:52;;;;;;;5.25;2.63;;;10.10;99.90;;;;;;4196930;28;20056;-87
2022/12/29 02:23:32;;;;;;;5.90;2.65;;;10.10;99.90;;;;;;4196900;28;20040;-87
2022/12/29 02:25:57;;;;;;;3.72;2.25;;;10.10;99.90;;;;;;4198268;28;20479;-87
2022/12/29 02:28:09;;;;;;;2.53;2.05;;;10.10;99.90;;;;;;4196687;28;20516;-86
2022/12/29 02:30:12;;;;;;;2.92;2.08;;;10.10;99.90;;;;;;4196099;28;20048;-86
2022/12/29 02:32:16;;;;;;;5.13;2.00;;;10.10;99.90;;;;;;4197642;28;20040;-87
2022/12/29 02:34:24;;;;;;;5.85;2.00;;;10.20;99.90;;;;;;4197865;28;20044;-87
2022/12/29 02:36:53;;;;;;;2.67;1.30;;;10.20;99.90;;;;;;4196859;28;20053;-86
2022/12/29 02:39:15;;;;;;;3.05;1.70;;;10.20;99.90;;;;;;4193971;28;20494;-87
2022/12/29 02:41:21;;;;;;;4.55;1.92;;;10.20;99.90;;;;;;4196516;28;20105;-87
2022/12/29 02:43:36;;;;;;;2.60;1.60;;;10.20;99.90;;;;;;4197880;28;20507;-87
2022/12/29 02:45:58;;;;;;;2.45;1.38;;;10.30;99.90;;;;;;4196396;28;20048;-86
2022/12/29 02:48:17;;;;;;;2.47;1.80;;;10.30;99.90;;;;;;4196399;28;20048;-86
2022/12/29 02:50:27;;;;;;;2.58;1.40;;;10.30;99.90;;;;;;4196726;28;20054;-86
2022/12/29 02:52:35;;;;;;;1.50;1.40;;;10.30;99.90;;;;;;4197511;28;20040;-86
2022/12/29 02:54:42;;;;;;;2.83;1.60;;;10.30;99.90;;;;;;4196111;28;20076;-86
2022/12/29 02:56:43;;;;;;;2.92;1.42;;;10.30;99.90;;;;;;4196729;28;20045;-87
2022/12/29 02:58:43;;;;;;;2.50;1.30;;;10.30;99.90;;;;;;4197347;28;20106;-86
2022/12/29 03:01:05;;;;;;;4.18;1.55;;;10.30;99.90;;;;;;4196394;28;20044;-86
2022/12/29 03:03:25;;;;;;;5.45;1.67;;;10.30;99.90;;;;;;4196217;28;20083;-86
2022/12/29 03:05:44;;;;;;;1.73;1.17;;;10.30;99.90;;;;;;4197110;28;20044;-86
2022/12/29 03:08:05;;;;;;;3.85;1.50;;;10.30;99.90;;;;;;4197167;28;20048;-86
2022/12/29 03:10:18;;;;;;;3.67;1.35;;;10.30;99.90;;;;;;4195256;28;20048;-86
2022/12/29 03:17:38;;;;;;;1.95;1.10;;;10.30;99.90;;;;;;4197298;28;20048;-86
2022/12/29 03:19:46;;;;;;;2.97;1.10;;;10.30;99.90;;;;;;4178993;28;20048;-86
2022/12/29 03:24:25;;;;;;;5.07;1.30;;;10.30;99.90;;;;;;4197581;28;20048;-86
2022/12/29 03:26:26;;;;;;;1.10;0.90;;;10.40;99.90;;;;;;4196328;28;20052;-86
2022/12/29 03:28:35;;;;;;;3.22;1.40;;;10.40;99.90;;;;;;4179922;28;20102;-86
2022/12/29 03:30:39;;;;;;;3.40;1.00;;;10.40;99.90;;;;;;4195304;28;20386;-86
2022/12/29 03:33:02;;;;;;;1.58;1.15;;;11.00;99.90;;;;;;4197156;28;20037;-87
2022/12/29 03:35:04;;;;;;;4.90;1.65;;;10.30;99.90;;;;;;4197536;28;20532;-86
2022/12/29 03:37:11;;;;;;;2.75;0.70;;;10.30;99.90;;;;;;4195910;28;20056;-86
2022/12/29 03:39:13;;;;;;;1.58;0.77;;;10.30;99.90;;;;;;4179192;28;20520;-86
2022/12/29 03:41:22;;;;;;;3.42;1.02;;;10.30;99.90;;;;;;4195881;28;20080;-86
2022/12/29 03:43:25;;;;;;;3.75;0.70;;;10.40;99.90;;;;;;4196538;28;20094;-86
2022/12/29 03:45:26;;;;;;;3.17;0.73;;;10.40;99.90;;;;;;4195738;28;20056;-85
2022/12/29 03:47:26;;;;;;;1.75;0.60;;;10.30;99.90;;;;;;4197346;28;20498;-85
2022/12/29 03:49:27;;;;;;;2.50;0.82;;;10.30;99.90;;;;;;4179617;28;20057;-86
2022/12/29 03:51:28;;;;;;;5.07;0.90;;;10.30;99.90;;;;;;4195547;28;20114;-86
2022/12/29 03:53:29;;;;;;;5.20;1.10;;;10.30;99.90;;;;;;4195709;28;20580;-86
2022/12/29 03:55:29;;;;;;;3.40;0.75;;;10.30;99.90;;;;;;4197037;28;20052;-86
2022/12/29 03:57:30;;;;;;;7.60;1.30;;;10.30;99.90;;;;;;4196914;28;20203;-85
2022/12/29 03:59:32;;;;;;;1.75;0.70;;;10.30;99.90;;;;;;4178616;28;20052;-86
2022/12/29 04:01:33;;;;;;;2.10;0.98;;;10.30;99.90;;;;;;4179236;28;20041;-86
2022/12/29 04:03:34;;;;;;;1.27;1.02;;;10.30;99.90;;;;;;4195543;28;20140;-87
2022/12/29 04:05:35;;;;;;;2.22;0.70;;;10.20;99.90;;;;;;4196057;28;20059;-86
2022/12/29 04:07:35;;;;;;;3.97;0.98;;;10.20;99.90;;;;;;4195862;28;20052;-86
2022/12/29 04:09:37;;;;;;;3.28;0.70;;;10.80;99.90;;;;;;4195347;28;20183;-86
2022/12/29 04:11:38;;;;;;;3.00;0.80;;;10.20;99.90;;;;;;4196264;28;20060;-86
2022/12/29 04:13:40;;;;;;;3.63;0.73;;;10.20;99.90;;;;;;4195506;28;20556;-86
2022/12/29 04:15:43;;;;;;;1.48;0.80;;;10.30;99.90;;;;;;4196734;28;20048;-85
2022/12/29 04:17:43;;;;;;;3.17;1.10;;;10.20;99.90;;;;;;4195552;28;20149;-86
2022/12/29 04:19:44;;;;;;;1.90;0.70;;;10.30;99.90;;;;;;4195805;28;20052;-85
2022/12/29 04:21:45;;;;;;;4.18;0.88;;;10.30;99.90;;;;;;4196933;28;20054;-86
2022/12/29 04:23:46;;;;;;;3.85;0.82;;;10.30;99.90;;;;;;4179038;28;20049;-86
2022/12/29 04:25:49;;;;;;;2.47;0.77;;;10.30;99.90;;;;;;4197037;28;20515;-86
2022/12/29 04:27:50;;;;;;;3.95;0.80;;;10.30;99.90;;;;;;4197522;28;20079;-86
2022/12/29 04:29:51;;;;;;;2.30;0.75;;;10.30;99.90;;;;;;4200518;28;20036;-85
2022/12/29 04:31:51;;;;;;;3.55;1.27;;;10.40;99.90;;;;;;4200777;28;20044;-85
2022/12/29 04:33:52;;;;;;;3.67;0.93;;;10.30;99.90;;;;;;4201695;28;20048;-85
2022/12/29 04:35:53;;;;;;;5.07;0.75;;;10.30;99.90;;;;;;4201938;28;20049;-86
2022/12/29 04:37:54;;;;;;;3.25;0.50;;;10.50;99.90;;;;;;4203281;28;20045;-86
2022/12/29 04:39:55;;;;;;;3.15;0.55;;;10.30;99.90;;;;;;4201512;28;20043;-85
2022/12/29 04:41:55;;;;;;;2.17;0.60;;;10.30;99.90;;;;;;4207462;28;20040;-85
2022/12/29 04:43:56;;;;;;;3.15;0.75;;;10.30;99.90;;;;;;4205949;28;20421;-85
2022/12/29 04:45:57;;;;;;;3.17;0.82;;;10.30;99.90;;;;;;4205541;28;20050;-85
2022/12/29 04:47:58;;;;;;;2.30;0.50;;;10.30;99.90;;;;;;4206278;28;20155;-86
2022/12/29 04:49:58;;;;;;;2.50;0.70;;;10.30;99.90;;;;;;4208707;28;20052;-86
2022/12/29 04:51:59;;;;;;;4.57;0.70;;;10.30;99.90;;;;;;4212655;28;20095;-84
2022/12/29 04:54:00;;;;;;;10.13;0.93;;;10.30;99.90;;;;;;4219308;28;20041;-85
2022/12/29 04:56:00;;;;;;;4.63;0.93;;;10.20;99.90;;;;;;4213709;28;20059;-85
2022/12/29 04:58:01;;;;;;;6.32;0.90;;;10.20;99.90;;;;;;4206195;28;20039;-85
2022/12/29 05:00:03;;;;;;;4.55;1.05;;;10.20;99.90;;;;;;4203489;28;20540;-85
2022/12/29 05:02:04;;;;;;;2.90;0.60;;;10.20;99.90;;;;;;4182113;28;20131;-85
2022/12/29 05:04:05;;;;;;;4.47;0.95;;;10.10;99.90;;;;;;4198703;28;20381;-85
2022/12/29 05:06:06;;;;;;;3.08;0.63;;;10.10;99.90;;;;;;4181497;28;20099;-86
2022/12/29 05:08:07;;;;;;;7.45;1.33;;;9.50;99.90;;;;;;4198160;28;20497;-86
2022/12/29 05:10:09;;;;;;;3.78;1.20;;;10.00;99.90;;;;;;4199699;28;20545;-85
2022/12/29 05:12:09;;;;;;;3.35;0.70;;;10.00;99.90;;;;;;4198125;28;20045;-85
2022/12/29 05:14:10;;;;;;;2.50;0.70;;;10.00;99.90;;;;;;4198574;28;20075;-85
2022/12/29 05:16:11;;;;;;;6.90;0.82;;;10.00;99.90;;;;;;4199733;28;20071;-86
2022/12/29 05:18:11;;;;;;;5.50;1.25;;;10.00;99.90;;;;;;4198268;28;20052;-85
2022/12/29 05:20:13;;;;;;;3.80;0.80;;;9.90;99.90;;;;;;4199068;28;20105;-85
2022/12/29 05:22:14;;;;;;;5.00;0.73;;;9.90;99.90;;;;;;4199199;28;20059;-85
2022/12/29 05:24:15;;;;;;;9.60;0.75;;;9.90;99.90;;;;;;4199851;28;20095;-85
2022/12/29 05:26:16;;;;;;;1.85;0.73;;;9.80;99.90;;;;;;4198111;28;20048;-84
2022/12/29 05:28:17;;;;;;;6.00;1.00;;;9.80;99.90;;;;;;4197988;28;20067;-84
2022/12/29 05:30:19;;;;;;;3.72;0.70;;;9.70;99.90;;;;;;4198213;28;20135;-86
2022/12/29 05:32:20;;;;;;;3.90;0.88;;;9.70;99.90;;;;;;4197829;28;20044;-86
2022/12/29 05:34:20;;;;;;;4.95;1.02;;;9.70;99.90;;;;;;4198107;28;20570;-86
2022/12/29 05:36:21;;;;;;;7.72;1.20;;;9.70;99.90;;;;;;4199024;28;20409;-85
2022/12/29 05:38:22;;;;;;;5.60;1.10;;;9.70;99.90;;;;;;4181483;28;20084;-85
2022/12/29 05:40:22;;;;;;;6.65;0.90;;;9.70;99.90;;;;;;4198085;28;20098;-85
2022/12/29 05:42:23;;;;;;;10.32;2.38;;;9.70;99.90;;;;;;4198724;28;20098;-85
2022/12/29 05:44:24;;;;;;;10.50;0.90;;;9.70;99.90;;;;;;4197572;28;20048;-85
2022/12/29 05:46:25;;;;;;;9.00;1.15;;;9.80;99.90;;;;;;4180845;28;20048;-85
2022/12/29 05:48:25;;;;;;;11.85;1.42;;;9.00;99.90;;;;;;4197454;28;20584;-86
2022/12/29 05:50:26;;;;;;;7.95;1.10;;;9.70;99.90;;;;;;4197530;28;20123;-86
2022/12/29 05:52:27;;;;;;;7.35;1.67;;;9.70;99.90;;;;;;4181207;28;20040;-86
2022/12/29 05:54:29;;;;;;;6.85;1.30;;;9.60;99.90;;;;;;4198629;28;20040;-85
2022/12/29 05:56:30;;;;;;;5.13;1.27;;;9.80;99.90;;;;;;4180881;28;20073;-86
2022/12/29 05:58:31;;;;;;;8.95;1.30;;;9.80;99.90;;;;;;4198422;28;20045;-85
2022/12/29 06:00:31;;;;;;;9.15;0.95;;;9.70;99.90;;;;;;4198076;28;20044;-86
2022/12/29 06:02:32;;;;;;;11.73;1.20;;;9.70;99.90;;;;;;4197400;28;20547;-85
2022/12/29 06:04:33;;;;;;;4.85;0.95;;;10.20;99.90;;;;;;4198676;28;20119;-85
2022/12/29 06:06:34;;;;;;;7.13;0.95;;;9.70;99.90;;;;;;4198545;28;20047;-85
2022/12/29 06:08:34;;;;;;;10.13;0.88;;;9.70;99.90;;;;;;4180289;28;20077;-86
2022/12/29 06:10:35;;;;;;;4.30;1.08;;;9.70;99.90;;;;;;4198157;28;20055;-86
2022/12/29 06:12:36;;;;;;;4.28;1.42;;;11.00;99.90;;;;;;4197663;28;20417;-86
2022/12/29 06:14:37;;;;;;;5.70;2.15;;;9.70;99.90;;;;;;4198155;28;20471;-86
2022/12/29 06:16:37;;;;;;;10.02;0.70;;;9.70;99.90;;;;;;4197126;28;20143;-85
2022/12/29 06:18:39;;;;;;;5.43;0.80;;;9.90;99.90;;;;;;4197481;28;20081;-85
2022/12/29 06:20:41;;;;;;;8.75;1.02;;;9.70;99.90;;;;;;4198168;28;20428;-85
2022/12/29 06:22:41;;;;;;;7.63;1.63;;;9.80;99.90;;;;;;4196334;28;20500;-85
2022/12/29 06:24:43;;;;;;;2.78;0.88;;;9.90;99.90;;;;;;4198036;28;20072;-85
2022/12/29 06:26:44;;;;;;;7.03;1.60;;;10.00;99.90;;;;;;4180261;28;20407;-85
2022/12/29 06:28:45;;;;;;;8.18;1.05;;;9.70;99.90;;;;;;4196609;28;20098;-86
2022/12/29 06:30:46;;;;;;;5.00;1.10;;;9.90;99.90;;;;;;4197856;28;20517;-85
2022/12/29 06:32:46;;;;;;;10.35;1.65;;;9.80;99.90;;;;;;4196494;28;20040;-85
2022/12/29 06:34:47;;;;;;;12.90;1.35;;;9.70;99.90;;;;;;4197120;28;20059;-85
2022/12/29 06:36:49;;;;;;;5.65;1.05;;;8.30;99.90;;;;;;4197300;28;20039;-85
2022/12/29 06:38:52;;;;;;;14.45;1.35;;;9.80;99.90;;;;;;4196440;28;20481;-85
2022/12/29 06:40:52;;;;;;;5.85;1.17;;;9.80;99.90;;;;;;4179930;28;20558;-85
2022/12/29 06:42:53;;;;;;;7.63;1.35;;;9.60;99.90;;;;;;4180175;28;20096;-86
2022/12/29 06:44:57;;;;;;;6.15;1.17;;;9.70;99.90;;;;;;4197273;28;20048;-85
2022/12/29 06:46:59;;;;;;;4.30;1.20;;;9.60;99.90;;;;;;4179754;28;20048;-85
2022/12/29 06:48:59;;;;;;;12.27;1.83;;;9.70;99.90;;;;;;4197400;28;20036;-85
2022/12/29 06:51:00;;;;;;;10.10;1.98;;;9.70;99.90;;;;;;4197787;28;20557;-85
2022/12/29 06:53:02;;;;;;;8.40;1.30;;;9.70;99.90;;;;;;4196222;28;20051;-86
2022/12/29 06:55:03;;;;;;;7.00;1.73;;;9.70;99.90;;;;;;4197087;28;20075;-85
2022/12/29 06:57:03;;;;;;;4.45;0.82;;;9.60;99.90;;;;;;4197728;28;20519;-85
2022/12/29 06:59:04;;;;;;;7.18;1.50;;;9.60;99.90;;;;;;4198976;28;20080;-85
2022/12/29 07:01:07;;;;;;;10.80;1.83;;;9.70;99.90;;;;;;4197760;28;20037;-85
2022/12/29 07:03:08;;;;;;;7.03;1.67;;;9.70;99.90;;;;;;4198816;28;20518;-86
2022/12/29 07:05:10;;;;;;;8.65;1.30;;;9.60;99.90;;;;;;4197709;28;20106;-85
2022/12/29 07:07:11;;;;;;;7.60;1.05;;;9.70;99.90;;;;;;4198994;28;20392;-86
2022/12/29 07:09:12;;;;;;;10.93;1.33;;;9.60;99.90;;;;;;4197212;28;20048;-85
2022/12/29 07:11:12;;;;;;;12.23;1.90;;;9.60;99.90;;;;;;4197381;28;20056;-86
2022/12/29 07:13:13;;;;;;;11.85;1.27;;;9.60;99.90;;;;;;4202836;28;20137;-86
2022/12/29 07:15:14;;;;;;;11.15;1.90;;;9.60;99.90;;;;;;4196449;28;20098;-86
2022/12/29 07:17:15;;;;;;;6.70;0.95;;;9.60;99.90;;;;;;4197384;28;20578;-83
2022/12/29 07:19:17;;;;;;;10.07;1.83;;;9.60;99.90;;;;;;4197476;28;20045;-84
2022/12/29 07:21:18;;;;;;;6.28;1.25;;;9.50;99.90;;;;;;4196440;28;20467;-84
2022/12/29 07:23:19;;;;;;;6.93;1.23;;;8.50;99.90;;;;;;4196798;28;20076;-84
2022/12/29 07:25:20;;;;;;;8.75;0.88;;;9.50;99.90;;;;;;4197713;28;20106;-84
2022/12/29 07:27:22;;;;;;;6.10;1.92;;;9.60;99.90;;;;;;4179354;28;20057;-84
2022/12/29 07:29:22;;;;;;;14.50;2.50;;;9.50;99.90;;;;;;4196807;28;20496;-84
2022/12/29 07:31:23;;;;;;;12.07;1.73;;;9.60;99.90;;;;;;4197119;28;20105;-84
2022/12/29 07:33:24;;;;;;;11.40;1.65;;;9.60;99.90;;;;;;4179344;28;20060;-84
2022/12/29 07:35:25;;;;;;;10.82;1.25;;;9.60;99.90;;;;;;4197050;28;20477;-84
2022/12/29 07:37:26;;;;;;;7.60;1.38;;;9.60;99.90;;;;;;4197137;28;20105;-84
2022/12/29 07:39:26;;;;;;;9.50;1.15;;;9.80;99.90;;;;;;4196522;28;20033;-85
2022/12/29 07:41:27;;;;;;;11.95;1.42;;;10.80;99.90;;;;;;4195813;28;20052;-85
2022/12/29 07:43:28;;;;;;;7.90;1.42;;;9.70;99.90;;;;;;4195662;28;20053;-84
2022/12/29 07:45:29;;;;;;;8.82;1.80;;;9.60;99.90;;;;;;4196796;28;20429;-85
2022/12/29 07:47:30;;;;;;;8.95;1.23;;;9.70;99.90;;;;;;4196328;28;20087;-84
2022/12/29 07:49:31;;;;;;;6.70;1.45;;;10.30;99.90;;;;;;4197199;28;20045;-85
2022/12/29 07:51:32;;;;;;;8.00;1.20;;;9.80;99.90;;;;;;4196028;28;20131;-84
2022/12/29 07:53:32;;;;;;;9.23;1.17;;;9.80;99.90;;;;;;4196867;28;20119;-85
2022/12/29 07:55:34;;;;;;;6.93;0.90;;;9.70;99.90;;;;;;4196561;28;20048;-85
2022/12/29 07:57:35;;;;;;;6.13;2.22;;;9.80;99.90;;;;;;4196109;28;20482;-85
2022/12/29 07:59:36;;;;;;;8.00;1.67;;;9.80;99.90;;;;;;4197231;28;20036;-85
2022/12/29 08:01:37;;;;;;;13.50;1.95;;;9.80;99.90;;;;;;4195449;28;20083;-84
2022/12/29 08:03:38;;;;;;;12.20;1.92;;;9.80;99.90;;;;;;4195605;28;20382;-85
2022/12/29 08:05:39;;;;;;;10.98;1.30;;;9.70;99.90;;;;;;4212815;28;20059;-85
2022/12/29 08:07:40;;;;;;;6.00;1.50;;;9.80;99.90;;;;;;4200169;28;20046;-84
2022/12/29 08:09:41;;;;;;;5.88;1.15;;;9.70;99.90;;;;;;4200531;28;20501;-85
2022/12/29 08:11:45;;;;;;;9.77;1.75;;;10.60;99.90;;;;;;4200406;28;20557;-85
2022/12/29 08:13:46;;;;;;;7.75;1.55;;;9.60;99.90;;;;;;4199706;28;20048;-85
2022/12/29 08:15:46;;;;;;;8.38;1.77;;;10.40;99.90;;;;;;4200507;28;20071;-84
2022/12/29 08:17:47;;;;;;;10.38;1.67;;;9.60;99.90;;;;;;4199085;28;20540;-84
2022/12/29 08:19:48;;;;;;;10.95;2.08;;;9.60;99.90;;;;;;4182898;28;20114;-85
2022/12/29 08:21:49;;;;;;;6.72;1.42;;;9.50;99.90;;;;;;4200597;28;20489;-85
2022/12/29 08:23:49;;;;;;;8.35;1.77;;;9.50;99.90;;;;;;4182569;28;20465;-85
2022/12/29 08:26:00;;;;;;;10.75;1.58;;;9.60;99.90;;;;;;4200576;28;20094;-84
2022/12/29 08:28:00;;;;;;;6.50;1.23;;;9.60;99.90;;;;;;4182964;28;20102;-85
2022/12/29 08:30:01;;;;;;;5.13;1.42;;;9.60;99.90;;;;;;4200333;28;20032;-85
2022/12/29 08:32:02;;;;;;;11.85;2.47;;;9.70;99.90;;;;;;4199674;28;20056;-85
2022/12/29 08:34:04;;;;;;;13.52;1.95;;;9.70;99.90;;;;;;4182172;28;20044;-85
2022/12/29 08:36:06;;;;;;;10.60;1.48;;;9.70;99.90;;;;;;4198829;28;20417;-85
2022/12/29 08:38:11;;;;;;;12.20;2.20;;;9.80;99.90;;;;;;4200395;28;20068;-86
2022/12/29 08:40:11;;;;;;;10.32;2.00;;;9.60;99.90;;;;;;4200147;28;20051;-85
2022/12/29 08:42:12;;;;;;;9.65;2.53;;;9.70;99.90;;;;;;4200277;28;20048;-85
2022/12/29 08:44:13;;;;;;;7.65;1.40;;;9.70;99.90;;;;;;4198994;28;20106;-86
2022/12/29 08:46:14;;;;;;;20.58;2.90;;;9.40;99.90;;;;;;4182747;28;20044;-85
2022/12/29 08:48:21;;;;;;;12.95;2.45;;;9.50;99.90;;;;;;4200843;28;20044;-85
2022/12/29 08:50:22;;;;;;;10.07;2.30;;;10.50;99.90;;;;;;4199494;28;20052;-85
2022/12/29 08:52:23;;;;;;;16.27;2.38;;;9.20;99.90;;;;;;4199930;28;20512;-85
2022/12/29 08:54:25;;;;;;;10.13;2.88;;;9.10;99.90;;;;;;4198784;28;20075;-85
2022/12/29 08:56:26;;;;;;;12.65;1.50;;;9.20;99.90;;;;;;4182078;28;20044;-85
2022/12/29 08:58:27;;;;;;;17.92;2.00;;;9.20;99.90;;;;;;4198131;28;20072;-85
2022/12/29 09:00:28;;;;;;;7.65;1.27;;;9.30;99.90;;;;;;4198183;28;20076;-85
2022/12/29 09:02:29;;;;;;;10.13;1.52;;;9.00;99.90;;;;;;4181792;28;20037;-85
2022/12/29 09:04:30;;;;;;;13.30;2.08;;;9.30;99.90;;;;;;4199593;28;20126;-85
2022/12/29 09:06:31;;;;;;;17.25;1.88;;;9.10;99.90;;;;;;4199304;28;20067;-85
2022/12/29 09:08:32;;;;;;;9.77;1.85;;;9.20;99.90;;;;;;4199187;28;20078;-86
2022/12/29 09:10:33;;;;;;;15.60;2.05;;;9.20;99.90;;;;;;4199104;28;20059;-85
2022/12/29 09:12:33;;;;;;;12.07;1.73;;;9.30;99.90;;;;;;4180748;28;20475;-85
2022/12/29 09:14:34;;;;;;;10.68;1.30;;;9.20;99.90;;;;;;4199117;28;20036;-85
2022/12/29 09:16:36;;;;;;;9.38;1.70;;;9.20;99.90;;;;;;4199192;28;20048;-86
2022/12/29 09:18:36;;;;;;;12.18;2.50;;;9.20;99.90;;;;;;4197072;28;20052;-85
2022/12/29 09:20:37;;;;;;;14.60;3.33;;;10.90;99.90;;;;;;4199300;28;20043;-85
2022/12/29 09:22:38;;;;;;;12.88;2.42;;;9.30;99.90;;;;;;4197644;28;20044;-85
2022/12/29 09:24:39;;;;;;;18.17;2.22;;;9.10;99.90;;;;;;4199051;28;20164;-85
2022/12/29 09:26:40;;;;;;;12.55;1.67;;;9.00;99.90;;;;;;4197780;28;20147;-86
2022/12/29 09:28:41;;;;;;;13.15;2.50;;;9.20;99.90;;;;;;4198994;28;20036;-86
2022/12/29 09:30:42;;;;;;;12.48;1.73;;;9.20;99.90;;;;;;4181221;28;20048;-85
2022/12/29 09:32:42;;;;;;;18.27;1.83;;;9.50;99.90;;;;;;4198846;28;20055;-86
2022/12/29 09:34:44;;;;;;;19.08;3.22;;;9.40;99.90;;;;;;4197126;28;20053;-86
2022/12/29 09:36:45;;;;;;;13.80;2.42;;;9.30;99.90;;;;;;4197563;28;20051;-86
2022/12/29 09:38:46;;;;;;;10.05;1.27;;;9.30;99.90;;;;;;4199022;28;20041;-85
2022/12/29 09:40:55;;;;;;;10.02;2.10;;;9.30;99.90;;;;;;4198706;28;20455;-85
2022/12/29 09:43:31;;;;;;;12.10;1.77;;;9.30;99.90;;;;;;4198997;28;20044;-86
2022/12/29 09:45:43;;;;;;;16.55;2.88;;;9.20;99.90;;;;;;4198456;28;20086;-85
2022/12/29 09:47:45;;;;;;;7.63;1.30;;;9.20;99.90;;;;;;4183049;28;20054;-84
2022/12/29 09:49:56;;;;;;;11.13;2.17;;;9.20;99.90;;;;;;4199137;28;20115;-85
2022/12/29 09:52:05;;;;;;;12.57;1.85;;;9.20;99.90;;;;;;4199088;28;20151;-85
2022/12/29 09:54:23;;;;;;;14.85;2.38;;;9.20;99.90;;;;;;4198936;28;20119;-85
2022/12/29 09:56:26;;;;;;;12.73;1.88;;;9.10;99.90;;;;;;4197798;28;20049;-84
2022/12/29 09:58:39;;;;;;;6.68;1.17;;;9.40;99.90;;;;;;4200486;28;20041;-85
2022/12/29 10:01:04;;;;;;;8.00;1.52;;;11.20;99.90;;;;;;4184740;28;20111;-85
2022/12/29 10:03:16;;;;;;;9.55;1.48;;;9.20;99.90;;;;;;4181125;28;20376;-85
2022/12/29 10:05:19;;;;;;;10.85;2.05;;;9.20;99.90;;;;;;4197837;28;20473;-85
2022/12/29 10:07:28;;;;;;;13.23;1.30;;;9.20;99.90;;;;;;4198937;28;20044;-85
2022/12/29 10:09:42;;;;;;;;;;;9.20;99.90;;;;;;4199197;28;20500;-86
2022/12/29 10:11:55;;;;;;;10.13;1.92;;;8.70;99.90;;;;;;4198774;28;19924;-86
2022/12/29 10:14:08;;;;;;;13.98;1.63;;;9.10;99.90;;;;;;4199051;28;20488;-86
2022/12/29 10:16:17;;;;;;;9.45;1.60;;;9.00;99.90;;;;;;4197766;28;20044;-85
2022/12/29 10:18:27;;;;;;;8.00;1.80;;;9.70;99.90;;;;;;4181028;28;20059;-85
2022/12/29 10:20:44;;;;;;;10.00;1.55;;;9.00;99.90;;;;;;4198313;28;20045;-85
2022/12/29 10:23:01;;;;;;;8.07;1.63;;;8.90;99.90;;;;;;4180596;28;20060;-84
2022/12/29 10:25:17;;;;;;;8.93;1.55;;;9.20;99.90;;;;;;4198758;28;20049;-84
2022/12/29 10:27:18;;;;;;;9.25;1.67;;;8.80;99.90;;;;;;4198481;28;20055;-84
2022/12/29 10:29:24;;;;;;;6.38;2.05;;;8.80;99.90;;;;;;4196848;28;20417;-85
2022/12/29 10:32:01;;;;;;;5.88;1.45;;;8.80;99.90;;;;;;4196527;28;20130;-85
2022/12/29 10:34:14;;;;;;;12.73;1.60;;;8.70;99.90;;;;;;4196876;28;20049;-86
2022/12/29 10:36:39;;;;;;;16.45;1.48;;;8.90;99.90;;;;;;4197881;28;20048;-85
2022/12/29 10:38:58;;;;;;;8.20;1.27;;;8.60;99.90;;;;;;4196841;28;20040;-84
2022/12/29 10:41:20;;;;;;;11.38;1.38;;;8.60;99.90;;;;;;4198317;28;20048;-85
2022/12/29 10:43:34;;;;;;;8.27;2.10;;;8.60;99.90;;;;;;4179563;28;20052;-86
2022/12/29 10:45:35;;;;;;;12.27;2.47;;;8.50;99.90;;;;;;4197771;28;20136;-86
2022/12/29 10:47:49;;;;;;;10.07;2.15;;;8.50;99.90;;;;;;4196453;28;20519;-85
2022/12/29 10:49:51;;;;;;;6.57;1.88;;;8.50;99.90;;;;;;4197813;28;20493;-85
2022/12/29 10:51:54;;;;;;;10.68;1.88;;;8.50;99.90;;;;;;4197560;28;20082;-85
2022/12/29 10:54:25;;;;;;;10.70;1.45;;;8.60;99.90;;;;;;4199485;28;20148;-85
2022/12/29 10:56:29;;;;;;;9.05;1.55;;;8.60;99.90;;;;;;4199473;28;20051;-85
2022/12/29 10:58:32;;;;;;;10.95;1.83;;;8.60;99.90;;;;;;4198814;28;20076;-85
2022/12/29 11:00:33;;;;;;;8.95;1.98;;;8.80;99.90;;;;;;4198323;28;20049;-85
2022/12/29 11:02:56;;;;;;;16.30;1.80;;;8.70;99.90;;;;;;4198634;28;20064;-85
2022/12/29 11:05:32;;;;;;;15.65;3.15;;;8.80;99.90;;;;;;4200409;28;20051;-86
2022/12/29 11:07:33;;;;;;;7.70;1.42;;;8.80;99.90;;;;;;4132350;28;20054;-86
2022/12/29 11:09:37;;;;;;;10.93;1.50;;;8.90;99.90;;;;;;4199121;28;20063;-85
2022/12/29 11:11:38;;;;;;;13.80;3.20;;;8.80;99.90;;;;;;4199541;28;20036;-85
2022/12/29 11:13:50;;;;;;;11.55;3.45;;;8.90;99.90;;;;;;4198619;28;20083;-86
2022/12/29 11:15:52;;;;;;;18.63;1.90;;;8.90;99.90;;;;;;4196933;28;20052;-85
2022/12/29 11:17:59;;;;;;;18.88;1.98;;;9.10;99.90;;;;;;4197552;28;20401;-84
2022/12/29 11:20:27;;;;;;;12.15;1.58;;;9.00;99.90;;;;;;4196144;28;20397;-84
2022/12/29 11:22:28;;;;;;;12.75;2.63;;;9.00;99.90;;;;;;4196471;28;20044;-84
2022/12/29 11:24:30;;;;;;;15.43;2.13;;;9.00;99.90;;;;;;4196388;28;20471;-85
2022/12/29 11:26:32;;;;;;;11.13;1.88;;;10.40;99.90;;;;;;4196059;28;20044;-84
2022/12/29 11:28:39;;;;;;;16.50;2.90;;;9.00;99.90;;;;;;4196301;28;20125;-85